createdAt,value
2019-04-30T00:00:03.834Z,18.80
2019-04-30T00:02:39.991Z,21.40
2019-04-30T00:05:09.979Z,20.20
2019-04-30T00:07:35.751Z,20.70
2019-04-30T00:10:06.320Z,24.40
2019-04-30T00:12:37.976Z,22.07
2019-04-30T00:15:00.652Z,24.10
2019-04-30T00:17:26.670Z,19.92
2019-04-30T00:19:58.248Z,23.20
2019-04-30T00:22:30.949Z,22.17
2019-04-30T00:24:50.030Z,16.05
2019-04-30T00:27:21.093Z,15.70
2019-04-30T00:29:45.735Z,19.35
2019-04-30T00:32:12.007Z,23.87
2019-04-30T00:34:39.337Z,21.45
2019-04-30T00:37:07.381Z,21.48
2019-04-30T00:39:35.558Z,18.15
2019-04-30T00:42:01.848Z,19.27
2019-04-30T00:44:28.540Z,22.48
2019-04-30T00:46:55.904Z,19.60
2019-04-30T00:49:23.340Z,16.23
2019-04-30T00:51:55.843Z,17.07
2019-04-30T00:54:22.511Z,18.40
2019-04-30T00:56:46.322Z,18.35
2019-04-30T00:59:12.450Z,16.00
2019-04-30T01:01:56.355Z,16.90
2019-04-30T01:04:28.168Z,17.48
2019-04-30T01:06:52.472Z,16.42
2019-04-30T01:09:18.685Z,14.13
2019-04-30T01:11:48.094Z,14.38
2019-04-30T01:14:12.834Z,13.98
2019-04-30T01:16:39.446Z,14.18
2019-04-30T01:19:12.661Z,16.93
2019-04-30T01:21:33.898Z,18.52
2019-04-30T01:24:00.013Z,13.50
2019-04-30T01:26:27.663Z,16.27
2019-04-30T01:28:58.512Z,14.15
2019-04-30T01:31:22.242Z,17.20
2019-04-30T01:33:48.945Z,17.35
2019-04-30T01:36:15.221Z,13.65
2019-04-30T01:38:44.804Z,12.98
2019-04-30T01:41:09.611Z,13.48
2019-04-30T01:43:35.731Z,12.47
2019-04-30T01:46:12.138Z,17.65
2019-04-30T01:48:29.918Z,12.60
2019-04-30T01:50:56.046Z,14.10
2019-04-30T01:53:22.196Z,13.90
2019-04-30T01:55:52.733Z,11.68
2019-04-30T01:58:20.800Z,12.33
2019-04-30T02:00:54.642Z,10.20
2019-04-30T02:03:20.836Z,10.70
2019-04-30T02:05:46.969Z,11.30
2019-04-30T02:08:13.078Z,11.35
2019-04-30T02:10:40.363Z,12.05
2019-04-30T02:13:06.646Z,22.73
2019-04-30T02:15:32.792Z,10.08
2019-04-30T02:17:58.955Z,15.70
2019-04-30T02:20:25.191Z,12.05
2019-04-30T02:22:51.309Z,12.28
2019-04-30T02:25:19.383Z,13.10
2019-04-30T02:27:45.435Z,15.75
2019-04-30T02:30:11.599Z,10.28
2019-04-30T02:32:39.557Z,11.18
2019-04-30T02:35:19.863Z,12.93
2019-04-30T02:38:04.347Z,12.73
2019-04-30T02:40:33.181Z,12.85
2019-04-30T02:43:01.756Z,14.18
2019-04-30T02:45:29.994Z,10.50
2019-04-30T02:47:56.628Z,8.08
2019-04-30T02:50:25.079Z,10.60
2019-04-30T02:52:51.949Z,14.13
2019-04-30T02:55:21.717Z,13.30
2019-04-30T02:57:49.905Z,12.78
2019-04-30T03:00:20.592Z,12.45
2019-04-30T03:02:45.717Z,15.88
2019-04-30T03:05:13.495Z,12.78
2019-04-30T03:07:40.689Z,13.80
2019-04-30T03:10:10.040Z,13.53
2019-04-30T03:12:35.675Z,11.88
2019-04-30T03:15:02.151Z,10.78
2019-04-30T03:17:46.670Z,16.12
2019-04-30T03:20:34.735Z,12.05
2019-04-30T03:22:54.510Z,12.07
2019-04-30T03:25:20.512Z,14.20
2019-04-30T03:27:46.582Z,13.98
2019-04-30T03:30:12.804Z,14.55
2019-04-30T03:32:42.869Z,12.80
2019-04-30T03:35:06.869Z,14.45
2019-04-30T03:37:32.992Z,18.12
2019-04-30T03:40:00.663Z,12.88
2019-04-30T03:42:29.434Z,18.67
2019-04-30T03:44:54.959Z,14.47
2019-04-30T03:47:21.069Z,13.18
2019-04-30T03:49:49.799Z,18.15
2019-04-30T03:52:15.110Z,14.45
2019-04-30T03:54:41.158Z,16.77
2019-04-30T03:57:07.265Z,12.20
2019-04-30T03:59:33.344Z,15.80
2019-04-30T04:02:01.361Z,13.98
2019-04-30T04:07:32.491Z,16.05
2019-04-30T04:10:03.321Z,13.43
2019-04-30T04:12:30.539Z,14.47
2019-04-30T04:14:56.983Z,13.55
2019-04-30T04:17:23.220Z,16.57
2019-04-30T04:19:50.371Z,11.35
2019-04-30T04:22:16.946Z,15.38
2019-04-30T04:24:42.964Z,16.17
2019-04-30T04:27:09.777Z,17.57
2019-04-30T04:29:35.819Z,15.32
2019-04-30T04:32:01.955Z,15.20
2019-04-30T04:34:30.310Z,17.50
2019-04-30T04:36:55.905Z,17.65
2019-04-30T04:39:21.825Z,15.70
2019-04-30T04:41:50.256Z,18.50
2019-04-30T04:44:16.011Z,15.68
2019-04-30T04:46:42.192Z,13.50
2019-04-30T04:49:09.017Z,11.93
2019-04-30T04:51:39.385Z,13.08
2019-04-30T04:54:03.595Z,13.15
2019-04-30T04:56:30.395Z,15.75
2019-04-30T04:58:56.745Z,14.30
2019-04-30T05:01:22.880Z,16.25
2019-04-30T05:03:49.173Z,15.72
2019-04-30T05:06:15.227Z,17.07
2019-04-30T05:08:41.241Z,19.32
2019-04-30T05:11:07.261Z,18.05
2019-04-30T05:13:34.749Z,16.07
2019-04-30T05:16:00.948Z,18.77
2019-04-30T05:18:28.994Z,22.95
2019-04-30T05:20:55.093Z,20.00
2019-04-30T05:23:21.880Z,19.98
2019-04-30T05:25:49.092Z,24.20
2019-04-30T05:28:15.456Z,21.15
2019-04-30T05:30:41.581Z,21.87
2019-04-30T05:33:08.848Z,23.50
2019-04-30T05:35:35.022Z,20.00
2019-04-30T05:38:01.161Z,20.68
2019-04-30T05:40:28.761Z,18.27
2019-04-30T05:42:54.925Z,17.37
2019-04-30T05:45:20.970Z,17.87
2019-04-30T05:47:50.246Z,16.10
2019-04-30T05:50:16.880Z,17.20
2019-04-30T05:52:43.006Z,19.60
2019-04-30T05:55:09.864Z,19.40
2019-04-30T05:57:35.997Z,20.48
2019-04-30T06:00:06.856Z,20.88
2019-04-30T06:02:33.986Z,23.00
2019-04-30T06:05:00.509Z,21.55
2019-04-30T06:07:26.659Z,22.15
2019-04-30T06:10:00.516Z,20.70
2019-04-30T06:12:37.157Z,18.12
2019-04-30T06:15:24.831Z,19.60
2019-04-30T06:18:00.272Z,17.42
2019-04-30T06:20:21.119Z,17.95
2019-04-30T06:22:51.881Z,17.07
2019-04-30T06:25:28.345Z,20.02
2019-04-30T06:27:44.865Z,19.30
2019-04-30T06:30:12.114Z,18.50
2019-04-30T06:32:39.525Z,18.37
2019-04-30T06:35:09.081Z,20.75
2019-04-30T06:37:35.242Z,18.00
2019-04-30T06:40:01.357Z,16.55
2019-04-30T06:42:29.251Z,16.02
2019-04-30T06:44:55.734Z,18.52
2019-04-30T06:47:32.397Z,14.10
2019-04-30T06:49:50.322Z,18.13
2019-04-30T06:52:20.622Z,16.00
2019-04-30T06:54:44.501Z,13.75
2019-04-30T06:57:12.119Z,13.10
2019-04-30T06:59:39.572Z,13.95
2019-04-30T07:02:05.891Z,15.45
2019-04-30T07:04:32.043Z,14.00
2019-04-30T07:06:58.990Z,17.73
2019-04-30T07:12:30.906Z,11.97
2019-04-30T07:14:59.203Z,16.35
2019-04-30T07:17:25.416Z,13.78
2019-04-30T07:19:56.534Z,17.45
2019-04-30T07:22:36.218Z,14.05
2019-04-30T07:24:49.505Z,16.07
2019-04-30T07:27:15.556Z,16.32
2019-04-30T07:29:41.689Z,13.58
2019-04-30T07:32:09.436Z,11.95
2019-04-30T07:34:37.114Z,11.80
2019-04-30T07:37:15.982Z,10.65
2019-04-30T07:39:33.447Z,12.65
2019-04-30T07:42:00.042Z,12.25
2019-04-30T07:44:35.476Z,11.25
2019-04-30T07:46:54.185Z,6.42
2019-04-30T07:49:20.715Z,8.28
2019-04-30T07:51:47.661Z,7.47
2019-04-30T07:54:15.838Z,11.43
2019-04-30T07:56:42.101Z,9.13
2019-04-30T07:59:11.096Z,8.50
2019-04-30T08:01:36.326Z,8.03
2019-04-30T08:04:13.158Z,8.68
2019-04-30T08:06:39.807Z,9.50
2019-04-30T08:09:10.320Z,6.78
2019-04-30T08:11:41.903Z,3.85
2019-04-30T08:14:05.048Z,8.38
2019-04-30T08:16:31.606Z,6.80
2019-04-30T08:18:59.183Z,7.83
2019-04-30T08:21:25.456Z,5.58
2019-04-30T08:23:51.628Z,8.18
2019-04-30T08:26:18.759Z,9.00
2019-04-30T08:28:45.060Z,4.72
2019-04-30T08:31:11.184Z,3.90
2019-04-30T08:33:37.300Z,3.02
2019-04-30T08:36:03.567Z,3.92
2019-04-30T08:38:30.086Z,4.50
2019-04-30T08:40:58.806Z,3.30
2019-04-30T08:43:24.794Z,6.30
2019-04-30T08:45:50.978Z,11.53
2019-04-30T08:48:18.984Z,3.58
2019-04-30T08:50:45.115Z,2.40
2019-04-30T08:53:11.537Z,3.47
2019-04-30T08:55:39.131Z,2.25
2019-04-30T08:58:09.950Z,4.62
2019-04-30T09:00:33.418Z,4.28
2019-04-30T09:02:59.576Z,5.30
2019-04-30T09:05:30.711Z,3.47
2019-04-30T09:07:56.817Z,5.03
2019-04-30T09:10:22.952Z,7.45
2019-04-30T09:12:49.510Z,4.30
2019-04-30T09:15:18.868Z,7.00
2019-04-30T09:17:58.156Z,3.40
2019-04-30T09:20:13.194Z,4.30
2019-04-30T09:22:39.413Z,5.22
2019-04-30T09:25:06.156Z,3.95
2019-04-30T09:27:32.176Z,2.45
2019-04-30T09:29:58.800Z,6.62
2019-04-30T09:32:25.054Z,5.20
2019-04-30T09:34:51.169Z,6.67
2019-04-30T09:37:18.722Z,4.17
2019-04-30T09:39:45.055Z,5.10
2019-04-30T09:42:11.169Z,4.60
2019-04-30T09:44:39.007Z,5.65
2019-04-30T09:47:05.307Z,5.10
2019-04-30T09:49:31.332Z,4.62
2019-04-30T09:51:59.516Z,2.92
2019-04-30T09:54:25.694Z,6.47
2019-04-30T09:56:52.759Z,4.30
2019-04-30T09:59:19.057Z,2.22
2019-04-30T10:01:45.166Z,2.55
2019-04-30T10:04:11.747Z,5.08
2019-04-30T10:06:40.188Z,3.42
2019-04-30T10:09:09.635Z,2.80
2019-04-30T10:11:37.909Z,5.35
2019-04-30T10:14:04.220Z,3.37
2019-04-30T10:16:32.243Z,4.22
2019-04-30T10:18:59.220Z,4.08
2019-04-30T10:21:26.672Z,2.72
2019-04-30T10:23:52.694Z,2.70
2019-04-30T10:26:18.846Z,2.67
2019-04-30T10:28:45.048Z,4.20
2019-04-30T10:31:11.160Z,4.10
2019-04-30T10:33:38.621Z,2.62
2019-04-30T10:36:04.793Z,2.02
2019-04-30T10:38:30.908Z,2.72
2019-04-30T10:40:58.743Z,4.42
2019-04-30T10:43:25.070Z,7.20
2019-04-30T10:45:51.183Z,13.28
2019-04-30T10:48:17.314Z,6.45
2019-04-30T10:50:43.424Z,7.22
2019-04-30T10:53:12.199Z,4.45
2019-04-30T10:55:38.739Z,3.65
2019-04-30T10:58:05.050Z,1.22
2019-04-30T11:00:38.805Z,2.20
2019-04-30T11:03:17.192Z,1.87
2019-04-30T11:05:33.787Z,0.95
2019-04-30T11:07:59.903Z,2.70
2019-04-30T11:10:26.358Z,1.42
2019-04-30T11:12:52.470Z,1.22
2019-04-30T11:15:20.645Z,4.62
2019-04-30T11:17:46.851Z,1.10
2019-04-30T11:20:13.420Z,2.47
2019-04-30T11:22:40.146Z,2.05
2019-04-30T11:25:06.944Z,6.55
2019-04-30T11:27:33.852Z,1.42
2019-04-30T11:30:03.539Z,1.47
2019-04-30T11:32:28.673Z,1.72
2019-04-30T11:34:54.670Z,1.47
2019-04-30T11:37:20.825Z,5.42
2019-04-30T11:39:47.048Z,0.93
2019-04-30T11:42:13.165Z,1.25
2019-04-30T11:44:40.317Z,0.60
2019-04-30T11:47:19.459Z,3.33
2019-04-30T11:49:45.495Z,0.68
2019-04-30T11:52:11.618Z,1.10
2019-04-30T11:54:48.706Z,0.60
2019-04-30T11:57:05.891Z,1.05
2019-04-30T11:59:32.000Z,0.60
2019-04-30T12:02:00.025Z,0.98
2019-04-30T12:04:26.077Z,1.00
2019-04-30T12:06:54.119Z,1.35
2019-04-30T12:09:25.011Z,0.85
2019-04-30T12:11:51.140Z,1.45
2019-04-30T12:14:18.183Z,0.90
2019-04-30T12:16:45.299Z,2.33
2019-04-30T12:19:11.435Z,1.35
2019-04-30T12:21:38.154Z,1.50
2019-04-30T12:24:04.273Z,0.68
2019-04-30T12:26:30.663Z,0.90
2019-04-30T12:28:56.796Z,1.70
2019-04-30T12:31:22.982Z,2.12
2019-04-30T12:33:49.090Z,0.70
2019-04-30T12:36:15.223Z,0.88
2019-04-30T12:38:41.350Z,1.00
2019-04-30T12:41:07.481Z,2.80
2019-04-30T12:43:33.637Z,2.70
2019-04-30T12:46:04.825Z,1.95
2019-04-30T12:48:30.224Z,1.98
2019-04-30T12:50:59.031Z,2.83
2019-04-30T12:53:27.100Z,1.50
2019-04-30T12:56:08.986Z,2.45
2019-04-30T12:58:35.355Z,1.65
2019-04-30T13:01:01.588Z,2.92
2019-04-30T13:03:28.355Z,4.87
2019-04-30T13:05:56.515Z,5.72
2019-04-30T13:08:23.556Z,4.85
2019-04-30T13:10:50.521Z,2.90
2019-04-30T13:13:17.702Z,4.30
2019-04-30T13:15:44.351Z,2.02
2019-04-30T13:18:10.522Z,3.30
2019-04-30T13:20:39.008Z,1.70
2019-04-30T13:23:04.827Z,2.70
2019-04-30T13:25:35.566Z,4.12
2019-04-30T13:28:01.121Z,2.37
2019-04-30T13:30:29.880Z,1.70
2019-04-30T13:33:00.715Z,1.75
2019-04-30T13:35:28.902Z,1.42
2019-04-30T13:38:06.109Z,1.55
2019-04-30T13:40:39.890Z,11.88
2019-04-30T13:43:07.962Z,2.87
2019-04-30T13:45:34.235Z,1.87
2019-04-30T13:48:00.487Z,4.60
2019-04-30T13:50:26.604Z,1.15
2019-04-30T13:52:52.745Z,6.85
2019-04-30T13:55:19.279Z,5.87
2019-04-30T13:57:45.598Z,2.22
2019-04-30T14:00:14.246Z,1.70
2019-04-30T14:02:44.741Z,0.88
2019-04-30T14:05:15.024Z,1.10
2019-04-30T14:07:51.872Z,1.87
2019-04-30T14:10:19.600Z,8.10
2019-04-30T14:12:47.777Z,9.00
2019-04-30T14:15:14.181Z,10.50
2019-04-30T14:17:40.393Z,10.43
2019-04-30T14:20:06.553Z,2.17
2019-04-30T14:22:32.805Z,10.20
2019-04-30T14:25:01.303Z,5.67
2019-04-30T14:27:27.524Z,9.48
2019-04-30T14:29:53.660Z,6.78
2019-04-30T14:32:19.895Z,6.95
2019-04-30T14:34:46.084Z,2.60
2019-04-30T14:40:17.122Z,1.45
2019-04-30T14:42:52.820Z,1.85
2019-04-30T14:45:21.832Z,1.12
2019-04-30T14:47:53.965Z,0.95
2019-04-30T14:50:22.559Z,0.93
2019-04-30T14:52:50.581Z,1.30
2019-04-30T14:55:21.517Z,1.40
2019-04-30T14:57:52.078Z,1.40
2019-04-30T15:00:26.400Z,1.42
2019-04-30T15:02:58.589Z,4.72
2019-04-30T15:05:25.059Z,5.22
2019-04-30T15:07:51.177Z,2.67
2019-04-30T15:10:17.414Z,2.10
2019-04-30T15:12:43.523Z,1.40
2019-04-30T15:15:12.296Z,3.30
2019-04-30T15:17:40.917Z,4.90
2019-04-30T15:20:08.802Z,2.35
2019-04-30T15:22:38.921Z,2.33
2019-04-30T15:25:05.324Z,3.27
2019-04-30T15:27:31.433Z,2.08
2019-04-30T15:29:57.584Z,1.22
2019-04-30T15:32:23.773Z,1.90
2019-04-30T15:34:51.716Z,2.67
2019-04-30T15:37:21.743Z,1.77
2019-04-30T15:39:46.451Z,2.55
2019-04-30T15:42:16.473Z,2.35
2019-04-30T15:44:45.712Z,3.65
2019-04-30T15:47:11.263Z,7.62
2019-04-30T15:49:37.397Z,4.00
2019-04-30T15:52:03.918Z,4.65
2019-04-30T15:54:32.835Z,2.50
2019-04-30T15:57:00.488Z,2.70
2019-04-30T15:59:40.519Z,4.15
2019-04-30T16:02:11.309Z,1.27
2019-04-30T16:04:41.871Z,1.35
2019-04-30T16:07:08.530Z,3.35
2019-04-30T16:09:38.386Z,48.80
2019-04-30T16:12:24.653Z,13.35
2019-04-30T16:14:50.762Z,6.72
2019-04-30T16:17:21.488Z,2.25
2019-04-30T16:19:47.614Z,2.12
2019-04-30T16:22:13.738Z,8.73
2019-04-30T16:24:39.862Z,5.78
2019-04-30T16:27:05.973Z,3.42
2019-04-30T16:29:32.124Z,69.12
2019-04-30T16:31:59.171Z,4.50
2019-04-30T16:34:25.490Z,5.62
2019-04-30T16:36:51.608Z,5.30
2019-04-30T16:39:18.680Z,6.33
2019-04-30T16:41:44.923Z,7.30
2019-04-30T16:44:11.086Z,15.50
2019-04-30T16:46:37.198Z,4.37
2019-04-30T16:49:03.322Z,3.75
2019-04-30T16:51:29.538Z,2.47
2019-04-30T16:53:55.674Z,6.20
2019-04-30T16:56:21.701Z,7.28
2019-04-30T16:59:04.981Z,8.05
2019-04-30T17:01:32.845Z,5.90
2019-04-30T17:04:06.754Z,6.95
2019-04-30T17:06:38.655Z,2.15
2019-04-30T17:09:10.336Z,8.53
2019-04-30T17:11:59.458Z,4.22
